createdAt,value
2023-05-23T00:03:43.594Z,90.16
2023-05-23T00:07:46.432Z,90.20
2023-05-23T00:11:49.212Z,90.15
2023-05-23T00:16:17.373Z,91.10
2023-05-23T00:20:21.285Z,91.54
2023-05-23T00:24:24.519Z,91.21
2023-05-23T00:28:28.066Z,92.80
2023-05-23T00:32:30.874Z,93.15
2023-05-23T00:36:59.847Z,93.38
2023-05-23T00:41:02.595Z,93.75
2023-05-23T00:45:06.152Z,93.58
2023-05-23T00:49:09.502Z,94.22
2023-05-23T00:53:14.665Z,95.51
2023-05-23T00:57:17.630Z,96.71
2023-05-23T01:01:21.257Z,97.00
2023-05-23T01:05:25.124Z,97.57
2023-05-23T01:09:29.205Z,96.66
2023-05-23T01:13:43.210Z,96.21
2023-05-23T01:18:10.213Z,95.64
2023-05-23T01:22:23.582Z,94.99
2023-05-23T01:27:06.015Z,95.64
2023-05-23T01:31:11.174Z,95.50
2023-05-23T01:35:20.212Z,95.45
2023-05-23T01:39:23.688Z,94.97
2023-05-23T01:43:26.880Z,94.39
2023-05-23T01:47:29.981Z,93.84
2023-05-23T01:51:38.788Z,93.38
2023-05-23T01:55:42.872Z,94.09
2023-05-23T01:59:45.954Z,94.91
2023-05-23T02:03:51.336Z,95.61
2023-05-23T02:07:54.082Z,96.07
2023-05-23T02:11:56.808Z,96.59
2023-05-23T02:15:59.605Z,96.54
2023-05-23T02:20:02.539Z,96.06
2023-05-23T02:24:05.535Z,95.80
2023-05-23T02:28:08.296Z,96.03
2023-05-23T02:32:11.172Z,96.37
2023-05-23T02:36:14.317Z,96.26
2023-05-23T02:40:17.296Z,96.78
2023-05-23T02:44:20.204Z,96.80
2023-05-23T02:48:23.052Z,96.78
2023-05-23T02:52:26.244Z,96.84
2023-05-23T02:56:29.255Z,96.74
2023-05-23T03:00:32.590Z,96.74
2023-05-23T03:04:35.466Z,97.11
2023-05-23T03:14:25.491Z,97.61
2023-05-23T03:18:28.327Z,98.07
2023-05-23T03:22:31.228Z,97.86
2023-05-23T03:26:34.166Z,99.22
2023-05-23T03:30:37.296Z,99.68
2023-05-23T03:34:40.556Z,99.61
2023-05-23T03:38:43.435Z,99.31
2023-05-23T03:43:06.320Z,99.26
2023-05-23T03:52:59.078Z,98.38
2023-05-23T03:57:03.580Z,97.92
2023-05-23T04:01:07.776Z,97.59
2023-05-23T04:05:12.150Z,97.15
2023-05-23T04:09:16.552Z,96.26
2023-05-23T04:13:21.416Z,95.13
2023-05-23T04:17:26.026Z,94.26
2023-05-23T04:21:29.571Z,93.85
2023-05-23T04:25:32.894Z,93.65
2023-05-23T04:29:36.465Z,93.32
2023-05-23T04:33:39.694Z,93.18
2023-05-23T04:37:42.882Z,92.14
2023-05-23T04:41:46.458Z,89.23
2023-05-23T04:45:54.462Z,89.74
2023-05-23T04:59:11.907Z,90.27
2023-05-23T05:03:19.888Z,92.27
2023-05-23T05:07:23.724Z,93.53
2023-05-23T05:11:29.806Z,92.02
2023-05-23T05:15:39.052Z,87.17
2023-05-23T05:19:42.262Z,86.83
2023-05-23T05:23:45.339Z,87.48
2023-05-23T05:27:48.397Z,87.33
2023-05-23T05:31:53.510Z,86.52
2023-05-23T05:35:56.617Z,87.43
2023-05-23T05:40:06.282Z,90.21
2023-05-23T05:44:10.575Z,91.41
2023-05-23T05:48:13.817Z,92.15
2023-05-23T05:52:17.071Z,89.87
2023-05-23T05:56:20.903Z,85.77
2023-05-23T06:00:24.215Z,83.74
2023-05-23T06:04:27.595Z,77.39
2023-05-23T06:08:30.771Z,75.90
2023-05-23T06:12:34.672Z,74.23
2023-05-23T06:16:38.021Z,72.91
2023-05-23T06:20:41.483Z,72.19
2023-05-23T06:24:44.837Z,71.38
2023-05-23T06:28:48.063Z,72.91
2023-05-23T06:32:51.475Z,73.34
2023-05-23T06:36:55.216Z,73.93
2023-05-23T06:40:58.299Z,74.28
2023-05-23T06:45:01.458Z,75.87
2023-05-23T06:49:14.255Z,75.28
2023-05-23T06:53:19.323Z,76.06
2023-05-23T06:57:22.709Z,77.95
2023-05-23T07:01:26.915Z,81.12
2023-05-23T07:05:30.226Z,82.77
2023-05-23T07:09:33.718Z,82.03
2023-05-23T07:13:39.094Z,85.72
2023-05-23T07:17:42.339Z,86.31
2023-05-23T07:21:45.574Z,83.95
2023-05-23T07:26:01.204Z,86.35
2023-05-23T07:30:07.997Z,87.52
2023-05-23T07:34:11.232Z,87.41
2023-05-23T07:38:14.460Z,86.92
2023-05-23T07:42:17.804Z,87.47
2023-05-23T07:46:23.168Z,88.04
2023-05-23T07:50:27.930Z,87.64
2023-05-23T07:54:31.362Z,90.60
2023-05-23T07:58:34.571Z,91.23
2023-05-23T08:02:37.862Z,88.98
2023-05-23T08:06:45.799Z,88.55
2023-05-23T08:10:59.382Z,88.82
2023-05-23T08:15:02.512Z,89.38
2023-05-23T08:19:05.943Z,90.30
2023-05-23T08:23:09.214Z,90.05
2023-05-23T08:27:12.410Z,91.84
2023-05-23T08:31:16.196Z,91.18
2023-05-23T08:35:20.067Z,94.16
2023-05-23T08:39:23.408Z,95.06
2023-05-23T08:43:27.063Z,94.88
2023-05-23T08:47:35.259Z,96.72
2023-05-23T08:51:42.836Z,96.85
2023-05-23T08:55:47.784Z,99.27
2023-05-23T08:59:52.547Z,100.00
2023-05-23T09:03:56.396Z,100.00
2023-05-23T09:07:59.883Z,100.00
2023-05-23T09:12:03.607Z,100.00
2023-05-23T09:16:10.495Z,100.00
2023-05-23T09:20:15.889Z,100.00
2023-05-23T09:24:19.750Z,100.00
2023-05-23T09:28:23.912Z,100.00
2023-05-23T09:32:28.157Z,100.00
2023-05-23T09:36:33.837Z,99.94
2023-05-23T09:40:37.083Z,97.21
2023-05-23T09:44:44.006Z,98.42
2023-05-23T09:48:48.610Z,95.06
2023-05-23T09:52:54.073Z,88.41
2023-05-23T09:57:01.647Z,88.12
2023-05-23T10:01:10.261Z,83.88
2023-05-23T10:05:36.514Z,83.65
2023-05-23T10:09:40.229Z,81.08
2023-05-23T10:13:49.451Z,81.25
2023-05-23T10:18:15.977Z,81.72
2023-05-23T10:22:21.214Z,78.35
2023-05-23T10:26:24.502Z,78.55
2023-05-23T10:30:28.534Z,78.60
2023-05-23T10:34:56.048Z,76.58
2023-05-23T10:39:06.275Z,75.36
2023-05-23T10:43:35.042Z,75.91
2023-05-23T10:47:39.872Z,75.59
2023-05-23T10:51:43.233Z,73.96
2023-05-23T10:55:49.437Z,74.00
2023-05-23T10:59:53.888Z,76.64
2023-05-23T11:03:57.476Z,78.52
2023-05-23T11:08:14.730Z,79.17
2023-05-23T11:12:37.935Z,75.39
2023-05-23T11:16:42.804Z,74.13
2023-05-23T11:20:47.702Z,74.84
2023-05-23T11:24:55.333Z,74.42
2023-05-23T11:28:59.672Z,77.04
2023-05-23T11:33:12.333Z,74.61
2023-05-23T11:37:15.788Z,72.47
2023-05-23T11:41:19.728Z,72.84
2023-05-23T11:45:24.005Z,71.33
2023-05-23T11:49:29.409Z,69.81
2023-05-23T11:53:33.308Z,71.64
2023-05-23T11:57:39.926Z,69.53
2023-05-23T12:01:43.897Z,69.17
2023-05-23T12:05:47.164Z,69.05
2023-05-23T12:09:50.505Z,69.17
2023-05-23T12:13:54.040Z,70.13
2023-05-23T12:17:58.255Z,69.42
2023-05-23T12:22:07.736Z,67.92
2023-05-23T12:26:11.114Z,69.25
2023-05-23T12:30:16.497Z,68.79
2023-05-23T12:34:21.816Z,69.16
2023-05-23T12:38:28.860Z,67.71
2023-05-23T12:42:46.952Z,70.40
2023-05-23T12:46:50.485Z,69.76
2023-05-23T12:50:53.762Z,68.48
2023-05-23T12:54:57.114Z,69.55
2023-05-23T12:59:02.189Z,71.42
2023-05-23T13:03:07.061Z,72.81
2023-05-23T13:07:10.568Z,74.56
2023-05-23T13:11:13.958Z,76.06
2023-05-23T13:15:17.680Z,73.89
2023-05-23T13:19:21.229Z,75.60
2023-05-23T13:23:26.531Z,77.10
2023-05-23T13:27:29.991Z,79.62
2023-05-23T13:36:15.257Z,100.00
2023-05-23T13:40:22.020Z,100.00
2023-05-23T13:44:25.639Z,100.00
2023-05-23T13:48:30.869Z,100.00
2023-05-23T13:52:35.619Z,100.00
2023-05-23T13:57:19.917Z,100.00
2023-05-23T14:02:08.459Z,100.00
2023-05-23T14:07:02.083Z,100.00
2023-05-23T14:11:16.533Z,100.00
2023-05-23T14:15:20.117Z,100.00
2023-05-23T14:19:23.809Z,100.00
2023-05-23T14:23:27.565Z,100.00
2023-05-23T14:27:32.896Z,100.00
2023-05-23T14:31:36.933Z,100.00
2023-05-23T14:35:40.736Z,100.00
2023-05-23T14:39:44.631Z,100.00
2023-05-23T14:43:49.796Z,100.00
2023-05-23T14:47:53.844Z,100.00
2023-05-23T14:51:59.683Z,100.00
2023-05-23T14:56:03.526Z,100.00
2023-05-23T15:00:10.637Z,100.00
2023-05-23T15:04:14.890Z,100.00
2023-05-23T15:08:19.280Z,100.00
2023-05-23T15:12:23.179Z,100.00
2023-05-23T15:16:33.551Z,100.00
2023-05-23T15:20:38.170Z,100.00
2023-05-23T15:24:41.850Z,100.00
2023-05-23T15:28:48.460Z,100.00
2023-05-23T15:32:53.664Z,100.00
2023-05-23T15:36:59.536Z,100.00
2023-05-23T15:41:03.370Z,100.00
2023-05-23T15:45:07.234Z,100.00
2023-05-23T15:49:21.700Z,100.00
2023-05-23T15:53:28.364Z,100.00
2023-05-23T15:57:33.465Z,100.00
2023-05-23T16:01:36.857Z,100.00
2023-05-23T16:05:39.950Z,100.00
2023-05-23T16:09:43.164Z,100.00
2023-05-23T16:13:46.308Z,100.00
2023-05-23T16:17:49.442Z,100.00
2023-05-23T16:21:53.139Z,100.00
2023-05-23T16:25:56.459Z,100.00
2023-05-23T16:29:59.956Z,100.00
2023-05-23T16:34:03.484Z,100.00
2023-05-23T16:38:06.786Z,100.00
2023-05-23T16:42:10.143Z,100.00
2023-05-23T16:46:13.659Z,100.00
2023-05-23T16:50:17.623Z,100.00
2023-05-23T16:54:21.458Z,100.00
2023-05-23T16:58:24.682Z,100.00
2023-05-23T17:02:28.097Z,100.00
2023-05-23T17:06:32.386Z,100.00
2023-05-23T17:10:36.581Z,100.00
2023-05-23T17:14:39.770Z,100.00
2023-05-23T17:18:43.185Z,100.00
2023-05-23T17:22:46.635Z,100.00
2023-05-23T17:26:49.984Z,100.00
2023-05-23T17:30:53.453Z,100.00
2023-05-23T17:34:56.688Z,100.00
2023-05-23T17:39:00.057Z,100.00
2023-05-23T17:43:03.452Z,100.00
2023-05-23T17:47:06.933Z,100.00
2023-05-23T17:51:10.442Z,100.00
2023-05-23T17:55:13.798Z,100.00
2023-05-23T17:59:52.486Z,100.00
2023-05-23T18:52:23.304Z,100.00
2023-05-23T18:57:17.647Z,100.00
2023-05-23T19:01:20.626Z,100.00
2023-05-23T19:05:24.420Z,100.00
2023-05-23T19:09:27.332Z,100.00
2023-05-23T19:13:47.806Z,100.00
2023-05-23T19:17:50.597Z,100.00
2023-05-23T19:21:59.026Z,100.00
2023-05-23T19:26:02.772Z,100.00
2023-05-23T19:30:07.079Z,100.00
2023-05-23T19:34:09.896Z,100.00
2023-05-23T19:38:13.155Z,100.00
2023-05-23T19:43:08.203Z,100.00
2023-05-23T19:47:11.700Z,100.00
2023-05-23T19:51:14.630Z,100.00
2023-05-23T19:55:18.972Z,100.00
2023-05-23T19:59:21.793Z,100.00
2023-05-23T20:03:51.567Z,100.00
2023-05-23T20:07:54.378Z,100.00
2023-05-23T20:11:57.269Z,100.00
2023-05-23T20:16:00.342Z,100.00
2023-05-23T20:20:09.034Z,100.00
2023-05-23T20:24:12.614Z,100.00
2023-05-23T20:28:15.645Z,100.00
2023-05-23T20:32:18.600Z,100.00
2023-05-23T20:36:21.491Z,100.00
2023-05-23T20:40:25.698Z,100.00
2023-05-23T20:44:31.780Z,100.00
2023-05-23T20:48:35.167Z,100.00
2023-05-23T20:52:41.422Z,100.00
2023-05-23T20:57:14.855Z,100.00
2023-05-23T21:01:17.683Z,100.00
2023-05-23T21:05:21.873Z,100.00
2023-05-23T21:09:24.660Z,100.00
2023-05-23T21:13:27.780Z,100.00
2023-05-23T21:17:30.759Z,100.00
2023-05-23T21:21:33.606Z,100.00
2023-05-23T21:25:36.446Z,100.00
2023-05-23T21:29:39.247Z,100.00
2023-05-23T21:33:42.118Z,100.00
2023-05-23T21:37:44.913Z,100.00
2023-05-23T21:41:47.765Z,100.00
2023-05-23T21:46:19.480Z,100.00
2023-05-23T21:50:22.317Z,100.00
2023-05-23T21:54:25.444Z,100.00
2023-05-23T21:58:29.285Z,100.00
2023-05-23T22:02:33.138Z,100.00
2023-05-23T22:06:36.595Z,100.00
2023-05-23T22:10:40.892Z,100.00
2023-05-23T22:14:43.873Z,100.00
2023-05-23T22:22:52.586Z,100.00
2023-05-23T22:26:56.023Z,100.00
2023-05-23T22:30:58.822Z,100.00
2023-05-23T22:35:01.817Z,100.00
2023-05-23T22:39:05.612Z,100.00
2023-05-23T22:43:08.647Z,100.00
2023-05-23T22:47:13.772Z,100.00
2023-05-23T22:51:19.842Z,100.00
2023-05-23T22:55:49.038Z,100.00
2023-05-23T22:59:51.877Z,100.00
2023-05-23T23:03:54.650Z,100.00
2023-05-23T23:07:57.506Z,100.00
2023-05-23T23:12:01.194Z,100.00
2023-05-23T23:16:06.576Z,100.00
2023-05-23T23:20:10.309Z,100.00
2023-05-23T23:24:13.671Z,100.00
2023-05-23T23:28:17.546Z,100.00
2023-05-23T23:32:20.365Z,100.00
2023-05-23T23:36:24.292Z,100.00
2023-05-23T23:40:27.211Z,100.00
2023-05-23T23:44:30.293Z,100.00
2023-05-23T23:48:39.062Z,100.00
2023-05-23T23:52:45.877Z,100.00
2023-05-23T23:56:48.699Z,100.00
